sensor_id;sensor_type;location;lat;lon;timestamp;temperature;humidity
67196;DHT22;54122;53.538;49.366;2023-07-13T00:00:38;14.40;78.90
67196;DHT22;54122;53.538;49.366;2023-07-13T00:03:04;14.30;79.10
67196;DHT22;54122;53.538;49.366;2023-07-13T00:05:31;14.30;79.60
67196;DHT22;54122;53.538;49.366;2023-07-13T00:07:57;14.20;79.90
67196;DHT22;54122;53.538;49.366;2023-07-13T00:10:24;14.20;80.30
67196;DHT22;54122;53.538;49.366;2023-07-13T00:12:50;14.10;80.50
67196;DHT22;54122;53.538;49.366;2023-07-13T00:15:24;14.10;80.80
67196;DHT22;54122;53.538;49.366;2023-07-13T00:17:53;14.10;81.00
67196;DHT22;54122;53.538;49.366;2023-07-13T00:20:21;14.10;81.10
67196;DHT22;54122;53.538;49.366;2023-07-13T00:22:48;14.10;81.20
67196;DHT22;54122;53.538;49.366;2023-07-13T00:25:15;14.00;81.40
67196;DHT22;54122;53.538;49.366;2023-07-13T00:27:43;14.00;81.50
67196;DHT22;54122;53.538;49.366;2023-07-13T00:30:10;13.90;81.50
67196;DHT22;54122;53.538;49.366;2023-07-13T00:32:37;13.80;81.80
67196;DHT22;54122;53.538;49.366;2023-07-13T00:35:04;13.70;82.10
67196;DHT22;54122;53.538;49.366;2023-07-13T00:37:31;13.60;82.80
67196;DHT22;54122;53.538;49.366;2023-07-13T00:39:57;13.50;83.50
67196;DHT22;54122;53.538;49.366;2023-07-13T00:42:23;13.40;83.90
67196;DHT22;54122;53.538;49.366;2023-07-13T00:47:39;13.30;84.70
67196;DHT22;54122;53.538;49.366;2023-07-13T00:50:08;13.20;85.00
67196;DHT22;54122;53.538;49.366;2023-07-13T00:52:36;13.20;85.20
67196;DHT22;54122;53.538;49.366;2023-07-13T00:55:04;13.10;85.60
67196;DHT22;54122;53.538;49.366;2023-07-13T00:57:30;13.10;85.60
67196;DHT22;54122;53.538;49.366;2023-07-13T00:59:59;13.00;85.60
67196;DHT22;54122;53.538;49.366;2023-07-13T01:02:33;13.00;85.70
67196;DHT22;54122;53.538;49.366;2023-07-13T01:04:59;13.10;86.00
67196;DHT22;54122;53.538;49.366;2023-07-13T01:07:27;13.20;85.80
67196;DHT22;54122;53.538;49.366;2023-07-13T01:09:53;13.30;85.30
67196;DHT22;54122;53.538;49.366;2023-07-13T01:12:19;13.60;84.50
67196;DHT22;54122;53.538;49.366;2023-07-13T01:14:46;13.80;83.90
67196;DHT22;54122;53.538;49.366;2023-07-13T01:17:19;14.00;83.20
67196;DHT22;54122;53.538;49.366;2023-07-13T01:19:46;14.20;82.50
67196;DHT22;54122;53.538;49.366;2023-07-13T01:22:15;14.30;82.00
67196;DHT22;54122;53.538;49.366;2023-07-13T01:24:44;14.40;81.60
67196;DHT22;54122;53.538;49.366;2023-07-13T01:27:13;14.50;81.20
67196;DHT22;54122;53.538;49.366;2023-07-13T01:29:41;14.60;81.10
67196;DHT22;54122;53.538;49.366;2023-07-13T01:32:13;14.70;80.60
67196;DHT22;54122;53.538;49.366;2023-07-13T01:34:39;14.80;80.30
67196;DHT22;54122;53.538;49.366;2023-07-13T01:37:09;14.80;80.00
67196;DHT22;54122;53.538;49.366;2023-07-13T01:39:36;14.90;79.90
67196;DHT22;54122;53.538;49.366;2023-07-13T01:42:03;14.90;79.80
67196;DHT22;54122;53.538;49.366;2023-07-13T01:44:29;14.90;79.60
67196;DHT22;54122;53.538;49.366;2023-07-13T01:46:56;15.00;79.80
67196;DHT22;54122;53.538;49.366;2023-07-13T01:49:22;15.00;79.90
67196;DHT22;54122;53.538;49.366;2023-07-13T01:51:48;15.10;80.00
67196;DHT22;54122;53.538;49.366;2023-07-13T01:54:14;15.20;80.00
67196;DHT22;54122;53.538;49.366;2023-07-13T01:56:41;15.20;79.90
67196;DHT22;54122;53.538;49.366;2023-07-13T01:59:08;15.40;79.90
67196;DHT22;54122;53.538;49.366;2023-07-13T02:01:34;15.50;79.70
67196;DHT22;54122;53.538;49.366;2023-07-13T02:04:01;15.70;79.40
67196;DHT22;54122;53.538;49.366;2023-07-13T02:06:27;15.80;79.00
67196;DHT22;54122;53.538;49.366;2023-07-13T02:08:53;15.90;78.70
67196;DHT22;54122;53.538;49.366;2023-07-13T02:11:20;16.00;78.20
67196;DHT22;54122;53.538;49.366;2023-07-13T02:13:46;16.00;78.00
67196;DHT22;54122;53.538;49.366;2023-07-13T02:16:13;16.00;77.70
67196;DHT22;54122;53.538;49.366;2023-07-13T02:18:39;16.10;77.90
67196;DHT22;54122;53.538;49.366;2023-07-13T02:21:05;16.10;78.90
67196;DHT22;54122;53.538;49.366;2023-07-13T02:23:32;16.10;77.70
67196;DHT22;54122;53.538;49.366;2023-07-13T02:26:00;16.20;77.30
67196;DHT22;54122;53.538;49.366;2023-07-13T02:28:28;16.30;77.10
67196;DHT22;54122;53.538;49.366;2023-07-13T02:30:54;16.40;76.90
67196;DHT22;54122;53.538;49.366;2023-07-13T02:33:20;16.40;76.60
67196;DHT22;54122;53.538;49.366;2023-07-13T02:35:46;16.50;76.40
67196;DHT22;54122;53.538;49.366;2023-07-13T02:38:13;16.50;75.90
67196;DHT22;54122;53.538;49.366;2023-07-13T02:40:39;16.60;74.80
67196;DHT22;54122;53.538;49.366;2023-07-13T02:43:05;16.60;75.40
67196;DHT22;54122;53.538;49.366;2023-07-13T02:45:31;16.60;75.10
67196;DHT22;54122;53.538;49.366;2023-07-13T02:47:57;16.70;75.00
67196;DHT22;54122;53.538;49.366;2023-07-13T02:50:23;16.80;75.00
67196;DHT22;54122;53.538;49.366;2023-07-13T02:52:50;16.80;74.80
67196;DHT22;54122;53.538;49.366;2023-07-13T02:55:16;17.00;74.60
67196;DHT22;54122;53.538;49.366;2023-07-13T02:57:42;17.10;74.20
67196;DHT22;54122;53.538;49.366;2023-07-13T03:00:08;17.30;73.90
67196;DHT22;54122;53.538;49.366;2023-07-13T03:02:35;17.40;73.60
67196;DHT22;54122;53.538;49.366;2023-07-13T03:05:02;17.40;73.50
67196;DHT22;54122;53.538;49.366;2023-07-13T03:07:30;17.40;73.50
67196;DHT22;54122;53.538;49.366;2023-07-13T03:09:57;17.30;73.50
67196;DHT22;54122;53.538;49.366;2023-07-13T03:12:24;17.30;73.70
67196;DHT22;54122;53.538;49.366;2023-07-13T03:14:50;17.30;74.20
67196;DHT22;54122;53.538;49.366;2023-07-13T03:17:17;17.30;74.70
67196;DHT22;54122;53.538;49.366;2023-07-13T03:19:43;17.30;74.70
67196;DHT22;54122;53.538;49.366;2023-07-13T03:22:09;17.40;74.40
67196;DHT22;54122;53.538;49.366;2023-07-13T03:24:36;17.60;74.00
67196;DHT22;54122;53.538;49.366;2023-07-13T03:27:05;17.80;73.30
67196;DHT22;54122;53.538;49.366;2023-07-13T03:29:32;18.00;72.80
67196;DHT22;54122;53.538;49.366;2023-07-13T03:31:58;18.20;72.00
67196;DHT22;54122;53.538;49.366;2023-07-13T03:34:24;18.40;71.30
67196;DHT22;54122;53.538;49.366;2023-07-13T03:36:53;18.50;70.80
67196;DHT22;54122;53.538;49.366;2023-07-13T03:39:19;18.60;70.30
67196;DHT22;54122;53.538;49.366;2023-07-13T03:41:46;18.60;70.00
67196;DHT22;54122;53.538;49.366;2023-07-13T03:44:12;18.50;69.90
67196;DHT22;54122;53.538;49.366;2023-07-13T03:46:38;18.50;70.20
67196;DHT22;54122;53.538;49.366;2023-07-13T03:49:05;18.50;70.30
67196;DHT22;54122;53.538;49.366;2023-07-13T03:51:31;18.50;70.00
67196;DHT22;54122;53.538;49.366;2023-07-13T03:53:57;18.50;70.00
67196;DHT22;54122;53.538;49.366;2023-07-13T03:56:23;18.60;70.00
67196;DHT22;54122;53.538;49.366;2023-07-13T03:58:50;18.70;69.60
67196;DHT22;54122;53.538;49.366;2023-07-13T04:01:18;18.80;69.40
67196;DHT22;54122;53.538;49.366;2023-07-13T04:03:45;18.80;69.20
67196;DHT22;54122;53.538;49.366;2023-07-13T04:06:20;18.80;69.20
67196;DHT22;54122;53.538;49.366;2023-07-13T04:08:52;18.70;69.50
67196;DHT22;54122;53.538;49.366;2023-07-13T04:11:20;18.70;69.60
67196;DHT22;54122;53.538;49.366;2023-07-13T04:13:47;18.60;69.60
67196;DHT22;54122;53.538;49.366;2023-07-13T04:16:15;18.50;69.90
67196;DHT22;54122;53.538;49.366;2023-07-13T04:18:42;18.50;69.90
67196;DHT22;54122;53.538;49.366;2023-07-13T04:21:08;18.50;69.90
67196;DHT22;54122;53.538;49.366;2023-07-13T04:23:36;18.50;70.00
67196;DHT22;54122;53.538;49.366;2023-07-13T04:26:02;18.60;70.00
67196;DHT22;54122;53.538;49.366;2023-07-13T04:28:28;18.70;70.00
67196;DHT22;54122;53.538;49.366;2023-07-13T04:30:55;18.80;69.80
67196;DHT22;54122;53.538;49.366;2023-07-13T04:33:22;18.90;69.50
67196;DHT22;54122;53.538;49.366;2023-07-13T04:35:53;19.10;69.40
67196;DHT22;54122;53.538;49.366;2023-07-13T04:38:23;19.40;68.50
67196;DHT22;54122;53.538;49.366;2023-07-13T04:40:50;19.70;67.90
67196;DHT22;54122;53.538;49.366;2023-07-13T04:43:18;20.10;67.10
67196;DHT22;54122;53.538;49.366;2023-07-13T04:45:44;20.40;66.20
67196;DHT22;54122;53.538;49.366;2023-07-13T04:48:10;20.70;65.40
67196;DHT22;54122;53.538;49.366;2023-07-13T04:50:37;20.70;64.30
67196;DHT22;54122;53.538;49.366;2023-07-13T04:53:03;20.60;64.60
67196;DHT22;54122;53.538;49.366;2023-07-13T04:55:30;20.70;64.00
67196;DHT22;54122;53.538;49.366;2023-07-13T04:57:58;20.90;63.90
67196;DHT22;54122;53.538;49.366;2023-07-13T05:00:27;21.90;62.50
67196;DHT22;54122;53.538;49.366;2023-07-13T05:02:55;23.80;56.50
67196;DHT22;54122;53.538;49.366;2023-07-13T05:05:22;24.40;51.80
67196;DHT22;54122;53.538;49.366;2023-07-13T05:07:48;24.60;50.90
67196;DHT22;54122;53.538;49.366;2023-07-13T05:10:14;24.40;50.20
67196;DHT22;54122;53.538;49.366;2023-07-13T05:12:40;24.40;51.20
67196;DHT22;54122;53.538;49.366;2023-07-13T05:15:07;24.80;49.70
67196;DHT22;54122;53.538;49.366;2023-07-13T05:17:34;24.50;49.60
67196;DHT22;54122;53.538;49.366;2023-07-13T05:20:00;24.00;50.50
67196;DHT22;54122;53.538;49.366;2023-07-13T05:22:26;23.40;51.70
67196;DHT22;54122;53.538;49.366;2023-07-13T05:24:53;22.80;53.20
67196;DHT22;54122;53.538;49.366;2023-07-13T05:27:19;22.30;54.60
67196;DHT22;54122;53.538;49.366;2023-07-13T05:29:45;22.00;55.80
67196;DHT22;54122;53.538;49.366;2023-07-13T05:32:11;21.90;57.10
67196;DHT22;54122;53.538;49.366;2023-07-13T05:34:37;21.70;57.70
67196;DHT22;54122;53.538;49.366;2023-07-13T05:37:04;21.50;58.90
67196;DHT22;54122;53.538;49.366;2023-07-13T05:39:30;21.10;60.60
67196;DHT22;54122;53.538;49.366;2023-07-13T05:41:56;20.60;62.70
67196;DHT22;54122;53.538;49.366;2023-07-13T05:44:22;20.10;65.00
67196;DHT22;54122;53.538;49.366;2023-07-13T05:46:49;19.80;66.60
67196;DHT22;54122;53.538;49.366;2023-07-13T05:49:15;19.50;68.10
67196;DHT22;54122;53.538;49.366;2023-07-13T05:51:42;19.40;68.90
67196;DHT22;54122;53.538;49.366;2023-07-13T05:54:09;19.30;69.70
67196;DHT22;54122;53.538;49.366;2023-07-13T05:56:35;19.30;69.70
67196;DHT22;54122;53.538;49.366;2023-07-13T05:59:01;19.30;70.20
67196;DHT22;54122;53.538;49.366;2023-07-13T06:01:30;19.10;71.00
67196;DHT22;54122;53.538;49.366;2023-07-13T06:03:57;19.10;71.50
67196;DHT22;54122;53.538;49.366;2023-07-13T06:06:23;19.00;71.60
67196;DHT22;54122;53.538;49.366;2023-07-13T06:08:49;18.80;72.30
67196;DHT22;54122;53.538;49.366;2023-07-13T06:11:19;18.70;72.80
67196;DHT22;54122;53.538;49.366;2023-07-13T06:13:45;18.70;74.00
67196;DHT22;54122;53.538;49.366;2023-07-13T06:16:13;18.80;74.60
67196;DHT22;54122;53.538;49.366;2023-07-13T06:18:40;19.10;74.70
67196;DHT22;54122;53.538;49.366;2023-07-13T06:21:18;19.80;73.30
67196;DHT22;54122;53.538;49.366;2023-07-13T06:23:46;20.90;70.00
67196;DHT22;54122;53.538;49.366;2023-07-13T06:26:14;21.60;66.60
67196;DHT22;54122;53.538;49.366;2023-07-13T06:28:40;22.20;64.80
67196;DHT22;54122;53.538;49.366;2023-07-13T06:31:08;23.00;62.70
67196;DHT22;54122;53.538;49.366;2023-07-13T06:33:34;23.80;58.80
67196;DHT22;54122;53.538;49.366;2023-07-13T06:36:02;24.00;56.80
67196;DHT22;54122;53.538;49.366;2023-07-13T06:38:29;24.70;56.20
67196;DHT22;54122;53.538;49.366;2023-07-13T06:40:55;26.70;51.00
67196;DHT22;54122;53.538;49.366;2023-07-13T06:43:21;28.60;44.80
67196;DHT22;54122;53.538;49.366;2023-07-13T06:45:48;29.30;42.40
67196;DHT22;54122;53.538;49.366;2023-07-13T06:48:17;28.90;41.30
67196;DHT22;54122;53.538;49.366;2023-07-13T06:50:44;28.10;41.70
67196;DHT22;54122;53.538;49.366;2023-07-13T06:53:11;27.20;42.80
67196;DHT22;54122;53.538;49.366;2023-07-13T06:55:37;26.60;44.30
67196;DHT22;54122;53.538;49.366;2023-07-13T06:58:04;26.70;44.70
67196;DHT22;54122;53.538;49.366;2023-07-13T07:00:30;27.00;43.60
67196;DHT22;54122;53.538;49.366;2023-07-13T07:02:57;27.30;43.10
67196;DHT22;54122;53.538;49.366;2023-07-13T07:05:23;27.40;41.90
67196;DHT22;54122;53.538;49.366;2023-07-13T07:07:54;27.50;41.90
67196;DHT22;54122;53.538;49.366;2023-07-13T07:10:20;27.60;41.70
67196;DHT22;54122;53.538;49.366;2023-07-13T07:12:47;28.20;39.70
67196;DHT22;54122;53.538;49.366;2023-07-13T07:15:15;28.30;40.50
67196;DHT22;54122;53.538;49.366;2023-07-13T07:17:41;28.20;38.10
67196;DHT22;54122;53.538;49.366;2023-07-13T07:20:08;27.50;38.70
67196;DHT22;54122;53.538;49.366;2023-07-13T07:22:34;26.90;40.00
67196;DHT22;54122;53.538;49.366;2023-07-13T07:25:00;26.50;40.90
67196;DHT22;54122;53.538;49.366;2023-07-13T07:27:27;26.30;41.60
67196;DHT22;54122;53.538;49.366;2023-07-13T07:29:53;26.20;42.10
67196;DHT22;54122;53.538;49.366;2023-07-13T07:32:20;26.30;42.50
67196;DHT22;54122;53.538;49.366;2023-07-13T07:34:46;26.30;42.00
67196;DHT22;54122;53.538;49.366;2023-07-13T07:37:13;26.00;42.20
67196;DHT22;54122;53.538;49.366;2023-07-13T07:39:40;26.00;42.50
67196;DHT22;54122;53.538;49.366;2023-07-13T07:42:07;26.10;42.30
67196;DHT22;54122;53.538;49.366;2023-07-13T07:44:33;26.10;42.10
67196;DHT22;54122;53.538;49.366;2023-07-13T07:47:00;25.90;42.10
67196;DHT22;54122;53.538;49.366;2023-07-13T07:49:27;25.50;42.80
67196;DHT22;54122;53.538;49.366;2023-07-13T07:51:53;25.20;42.50
67196;DHT22;54122;53.538;49.366;2023-07-13T07:54:19;24.90;43.20
67196;DHT22;54122;53.538;49.366;2023-07-13T07:56:45;24.70;43.90
67196;DHT22;54122;53.538;49.366;2023-07-13T07:59:11;24.50;44.20
67196;DHT22;54122;53.538;49.366;2023-07-13T08:01:37;24.30;44.60
67196;DHT22;54122;53.538;49.366;2023-07-13T08:04:04;24.10;44.70
67196;DHT22;54122;53.538;49.366;2023-07-13T08:06:32;24.00;44.50
67196;DHT22;54122;53.538;49.366;2023-07-13T08:08:59;23.90;44.90
67196;DHT22;54122;53.538;49.366;2023-07-13T08:11:26;24.10;44.60
67196;DHT22;54122;53.538;49.366;2023-07-13T08:13:52;24.50;43.80
67196;DHT22;54122;53.538;49.366;2023-07-13T08:16:19;24.60;43.40
67196;DHT22;54122;53.538;49.366;2023-07-13T08:18:45;24.90;42.60
67196;DHT22;54122;53.538;49.366;2023-07-13T08:21:12;25.20;41.90
67196;DHT22;54122;53.538;49.366;2023-07-13T08:23:39;25.60;41.30
67196;DHT22;54122;53.538;49.366;2023-07-13T08:26:05;25.90;41.30
67196;DHT22;54122;53.538;49.366;2023-07-13T08:28:32;26.00;40.70
67196;DHT22;54122;53.538;49.366;2023-07-13T08:31:07;26.00;40.70
67196;DHT22;54122;53.538;49.366;2023-07-13T08:33:36;26.00;40.80
67196;DHT22;54122;53.538;49.366;2023-07-13T08:36:03;26.10;40.70
67196;DHT22;54122;53.538;49.366;2023-07-13T08:38:29;26.20;40.40
67196;DHT22;54122;53.538;49.366;2023-07-13T08:40:58;26.90;39.50
67196;DHT22;54122;53.538;49.366;2023-07-13T08:43:28;27.90;37.70
67196;DHT22;54122;53.538;49.366;2023-07-13T08:48:36;29.50;34.60
67196;DHT22;54122;53.538;49.366;2023-07-13T08:51:30;29.60;33.90
67196;DHT22;54122;53.538;49.366;2023-07-13T08:54:02;29.50;34.20
67196;DHT22;54122;53.538;49.366;2023-07-13T08:56:30;29.00;34.40
67196;DHT22;54122;53.538;49.366;2023-07-13T08:59:01;28.40;35.00
67196;DHT22;54122;53.538;49.366;2023-07-13T09:04:35;27.30;36.20
67196;DHT22;54122;53.538;49.366;2023-07-13T09:10:32;26.60;37.60
67196;DHT22;54122;53.538;49.366;2023-07-13T09:16:09;25.90;38.80
67196;DHT22;54122;53.538;49.366;2023-07-13T09:18:38;25.80;39.50
67196;DHT22;54122;53.538;49.366;2023-07-13T09:21:13;25.90;39.40
67196;DHT22;54122;53.538;49.366;2023-07-13T09:23:42;26.10;38.90
67196;DHT22;54122;53.538;49.366;2023-07-13T09:26:23;26.40;37.80
67196;DHT22;54122;53.538;49.366;2023-07-13T09:28:55;26.80;36.60
67196;DHT22;54122;53.538;49.366;2023-07-13T09:31:34;27.10;35.30
67196;DHT22;54122;53.538;49.366;2023-07-13T09:34:09;27.30;34.70
67196;DHT22;54122;53.538;49.366;2023-07-13T09:36:37;27.30;34.30
67196;DHT22;54122;53.538;49.366;2023-07-13T09:39:15;27.50;34.30
67196;DHT22;54122;53.538;49.366;2023-07-13T09:42:18;27.60;34.20
67196;DHT22;54122;53.538;49.366;2023-07-13T09:44:51;27.50;34.10
67196;DHT22;54122;53.538;49.366;2023-07-13T09:47:24;27.30;33.90
67196;DHT22;54122;53.538;49.366;2023-07-13T09:49:58;27.00;34.80
67196;DHT22;54122;53.538;49.366;2023-07-13T09:52:27;26.80;35.60
67196;DHT22;54122;53.538;49.366;2023-07-13T09:54:54;26.70;35.60
67196;DHT22;54122;53.538;49.366;2023-07-13T09:57:27;26.50;36.10
67196;DHT22;54122;53.538;49.366;2023-07-13T09:59:55;26.10;36.30
67196;DHT22;54122;53.538;49.366;2023-07-13T10:02:33;25.80;36.50
67196;DHT22;54122;53.538;49.366;2023-07-13T10:05:13;25.70;37.00
67196;DHT22;54122;53.538;49.366;2023-07-13T10:07:43;25.90;37.10
67196;DHT22;54122;53.538;49.366;2023-07-13T10:10:21;26.30;37.00
67196;DHT22;54122;53.538;49.366;2023-07-13T10:12:49;26.60;36.30
67196;DHT22;54122;53.538;49.366;2023-07-13T10:15:22;27.00;36.10
67196;DHT22;54122;53.538;49.366;2023-07-13T10:17:54;26.90;34.90
67196;DHT22;54122;53.538;49.366;2023-07-13T10:20:21;26.60;34.80
67196;DHT22;54122;53.538;49.366;2023-07-13T10:22:54;26.10;35.00
67196;DHT22;54122;53.538;49.366;2023-07-13T10:25:26;25.60;35.80
67196;DHT22;54122;53.538;49.366;2023-07-13T10:27:56;24.80;37.60
67196;DHT22;54122;53.538;49.366;2023-07-13T15:18:48;20.70;58.50
67196;DHT22;54122;53.538;49.366;2023-07-13T15:21:21;20.70;58.80
67196;DHT22;54122;53.538;49.366;2023-07-13T15:23:49;20.80;59.10
67196;DHT22;54122;53.538;49.366;2023-07-13T15:26:19;20.80;59.80
67196;DHT22;54122;53.538;49.366;2023-07-13T15:28:48;20.70;60.00
67196;DHT22;54122;53.538;49.366;2023-07-13T15:31:25;20.60;60.40
67196;DHT22;54122;53.538;49.366;2023-07-13T15:33:54;20.50;61.90
67196;DHT22;54122;53.538;49.366;2023-07-13T15:36:21;20.50;61.20
67196;DHT22;54122;53.538;49.366;2023-07-13T15:38:48;20.40;61.60
67196;DHT22;54122;53.538;49.366;2023-07-13T15:41:18;20.30;62.00
67196;DHT22;54122;53.538;49.366;2023-07-13T15:43:47;20.30;62.50
67196;DHT22;54122;53.538;49.366;2023-07-13T15:46:13;20.20;62.80
67196;DHT22;54122;53.538;49.366;2023-07-13T15:48:42;20.10;63.20
67196;DHT22;54122;53.538;49.366;2023-07-13T15:51:33;20.00;63.30
67196;DHT22;54122;53.538;49.366;2023-07-13T15:54:02;19.90;63.80
67196;DHT22;54122;53.538;49.366;2023-07-13T15:56:36;19.80;64.90
67196;DHT22;54122;53.538;49.366;2023-07-13T15:59:09;19.70;65.70
67196;DHT22;54122;53.538;49.366;2023-07-13T16:01:38;19.60;66.30
67196;DHT22;54122;53.538;49.366;2023-07-13T16:04:06;19.60;66.90
67196;DHT22;54122;53.538;49.366;2023-07-13T16:06:35;19.50;67.60
67196;DHT22;54122;53.538;49.366;2023-07-13T16:09:03;19.50;68.20
67196;DHT22;54122;53.538;49.366;2023-07-13T16:11:36;19.50;68.60
67196;DHT22;54122;53.538;49.366;2023-07-13T16:14:03;19.50;69.00
67196;DHT22;54122;53.538;49.366;2023-07-13T16:16:32;19.30;69.70
67196;DHT22;54122;53.538;49.366;2023-07-13T16:19:01;19.20;70.30
67196;DHT22;54122;53.538;49.366;2023-07-13T16:21:31;19.10;70.90
67196;DHT22;54122;53.538;49.366;2023-07-13T16:23:59;18.90;72.30
67196;DHT22;54122;53.538;49.366;2023-07-13T16:26:34;18.80;71.60
67196;DHT22;54122;53.538;49.366;2023-07-13T16:29:29;18.60;72.10
67196;DHT22;54122;53.538;49.366;2023-07-13T16:32:08;18.40;72.50
67196;DHT22;54122;53.538;49.366;2023-07-13T16:34:37;18.30;73.30
67196;DHT22;54122;53.538;49.366;2023-07-13T16:37:26;18.10;73.60
67196;DHT22;54122;53.538;49.366;2023-07-13T16:39:57;18.00;74.20
67196;DHT22;54122;53.538;49.366;2023-07-13T16:42:24;17.80;74.60
67196;DHT22;54122;53.538;49.366;2023-07-13T16:44:51;17.70;74.80
67196;DHT22;54122;53.538;49.366;2023-07-13T16:47:17;17.70;74.90
67196;DHT22;54122;53.538;49.366;2023-07-13T16:49:45;17.60;74.70
67196;DHT22;54122;53.538;49.366;2023-07-13T16:52:13;17.60;74.70
67196;DHT22;54122;53.538;49.366;2023-07-13T16:54:40;17.60;74.90
67196;DHT22;54122;53.538;49.366;2023-07-13T16:57:20;17.50;75.30
67196;DHT22;54122;53.538;49.366;2023-07-13T16:59:47;17.40;75.70
67196;DHT22;54122;53.538;49.366;2023-07-13T17:02:33;17.30;76.30
67196;DHT22;54122;53.538;49.366;2023-07-13T17:05:01;17.20;76.50
67196;DHT22;54122;53.538;49.366;2023-07-13T17:07:28;17.10;77.20
67196;DHT22;54122;53.538;49.366;2023-07-13T17:09:57;17.00;77.50
67196;DHT22;54122;53.538;49.366;2023-07-13T17:12:26;17.00;77.80
67196;DHT22;54122;53.538;49.366;2023-07-13T17:14:55;17.00;78.00
67196;DHT22;54122;53.538;49.366;2023-07-13T17:17:28;16.90;78.40
67196;DHT22;54122;53.538;49.366;2023-07-13T17:19:55;16.80;78.20
67196;DHT22;54122;53.538;49.366;2023-07-13T17:22:21;16.70;77.80
67196;DHT22;54122;53.538;49.366;2023-07-13T17:24:48;16.70;77.50
67196;DHT22;54122;53.538;49.366;2023-07-13T17:27:18;16.70;76.80
67196;DHT22;54122;53.538;49.366;2023-07-13T17:29:44;16.80;75.00
67196;DHT22;54122;53.538;49.366;2023-07-13T17:32:18;16.90;73.00
67196;DHT22;54122;53.538;49.366;2023-07-13T17:34:45;17.00;72.10
67196;DHT22;54122;53.538;49.366;2023-07-13T17:37:17;17.00;71.70
67196;DHT22;54122;53.538;49.366;2023-07-13T17:39:46;17.00;71.40
67196;DHT22;54122;53.538;49.366;2023-07-13T17:42:13;16.90;71.30
67196;DHT22;54122;53.538;49.366;2023-07-13T17:44:40;16.90;71.00
67196;DHT22;54122;53.538;49.366;2023-07-13T17:47:22;16.90;70.50
67196;DHT22;54122;53.538;49.366;2023-07-13T17:49:49;17.00;69.90
67196;DHT22;54122;53.538;49.366;2023-07-13T17:52:15;17.00;70.10
67196;DHT22;54122;53.538;49.366;2023-07-13T17:54:44;17.10;69.40
67196;DHT22;54122;53.538;49.366;2023-07-13T17:57:10;17.30;69.30
67196;DHT22;54122;53.538;49.366;2023-07-13T17:59:37;17.40;69.30
67196;DHT22;54122;53.538;49.366;2023-07-13T18:02:20;17.50;68.50
67196;DHT22;54122;53.538;49.366;2023-07-13T18:04:51;17.60;68.70
67196;DHT22;54122;53.538;49.366;2023-07-13T18:07:17;17.70;67.20
67196;DHT22;54122;53.538;49.366;2023-07-13T18:09:46;17.70;67.20
67196;DHT22;54122;53.538;49.366;2023-07-13T18:12:13;17.70;67.30
67196;DHT22;54122;53.538;49.366;2023-07-13T18:14:40;17.60;67.40
67196;DHT22;54122;53.538;49.366;2023-07-13T18:17:11;17.60;67.50
67196;DHT22;54122;53.538;49.366;2023-07-13T18:19:40;17.40;68.10
67196;DHT22;54122;53.538;49.366;2023-07-13T18:22:12;17.20;68.70
67196;DHT22;54122;53.538;49.366;2023-07-13T18:24:39;17.10;69.00
67196;DHT22;54122;53.538;49.366;2023-07-13T18:27:06;16.90;69.30
67196;DHT22;54122;53.538;49.366;2023-07-13T18:29:34;16.90;69.50
67196;DHT22;54122;53.538;49.366;2023-07-13T18:32:01;16.90;68.80
67196;DHT22;54122;53.538;49.366;2023-07-13T18:34:38;16.90;69.00
67196;DHT22;54122;53.538;49.366;2023-07-13T18:37:15;16.90;69.00
67196;DHT22;54122;53.538;49.366;2023-07-13T18:39:45;16.90;68.70
67196;DHT22;54122;53.538;49.366;2023-07-13T18:42:11;16.90;68.60
67196;DHT22;54122;53.538;49.366;2023-07-13T18:44:38;16.90;68.30
67196;DHT22;54122;53.538;49.366;2023-07-13T18:47:04;16.90;67.80
67196;DHT22;54122;53.538;49.366;2023-07-13T18:49:31;16.90;67.70
67196;DHT22;54122;53.538;49.366;2023-07-13T18:51:57;16.90;67.60
67196;DHT22;54122;53.538;49.366;2023-07-13T18:54:25;17.00;67.40
67196;DHT22;54122;53.538;49.366;2023-07-13T18:56:52;16.90;67.40
67196;DHT22;54122;53.538;49.366;2023-07-13T18:59:19;16.90;67.60
67196;DHT22;54122;53.538;49.366;2023-07-13T19:01:48;16.80;68.10
67196;DHT22;54122;53.538;49.366;2023-07-13T19:04:28;16.70;68.50
67196;DHT22;54122;53.538;49.366;2023-07-13T19:06:55;16.70;68.50
67196;DHT22;54122;53.538;49.366;2023-07-13T19:09:22;16.60;68.50
67196;DHT22;54122;53.538;49.366;2023-07-13T19:11:48;16.60;68.90
67196;DHT22;54122;53.538;49.366;2023-07-13T19:14:21;16.40;69.20
67196;DHT22;54122;53.538;49.366;2023-07-13T19:16:49;16.30;69.70
67196;DHT22;54122;53.538;49.366;2023-07-13T19:19:16;16.30;69.70
67196;DHT22;54122;53.538;49.366;2023-07-13T19:21:45;16.40;69.70
67196;DHT22;54122;53.538;49.366;2023-07-13T19:24:15;16.30;69.70
67196;DHT22;54122;53.538;49.366;2023-07-13T19:26:45;16.30;69.90
67196;DHT22;54122;53.538;49.366;2023-07-13T19:29:17;16.40;69.70
67196;DHT22;54122;53.538;49.366;2023-07-13T19:31:45;16.30;69.90
67196;DHT22;54122;53.538;49.366;2023-07-13T19:34:20;16.30;70.10
67196;DHT22;54122;53.538;49.366;2023-07-13T19:36:48;16.30;69.90
67196;DHT22;54122;53.538;49.366;2023-07-13T19:39:38;16.30;70.00
67196;DHT22;54122;53.538;49.366;2023-07-13T19:42:21;16.20;70.40
67196;DHT22;54122;53.538;49.366;2023-07-13T19:44:48;16.10;70.60
67196;DHT22;54122;53.538;49.366;2023-07-13T19:47:15;16.10;70.90
67196;DHT22;54122;53.538;49.366;2023-07-13T19:49:43;16.10;70.90
67196;DHT22;54122;53.538;49.366;2023-07-13T19:52:11;16.00;71.00
67196;DHT22;54122;53.538;49.366;2023-07-13T19:54:38;16.00;71.40
67196;DHT22;54122;53.538;49.366;2023-07-13T19:57:18;15.90;71.80
67196;DHT22;54122;53.538;49.366;2023-07-13T19:59:45;16.00;72.00
67196;DHT22;54122;53.538;49.366;2023-07-13T20:02:15;15.90;72.10
67196;DHT22;54122;53.538;49.366;2023-07-13T20:04:41;15.90;72.30
67196;DHT22;54122;53.538;49.366;2023-07-13T20:07:17;15.90;72.30
67196;DHT22;54122;53.538;49.366;2023-07-13T20:09:45;15.90;72.40
67196;DHT22;54122;53.538;49.366;2023-07-13T20:12:20;15.80;72.70
67196;DHT22;54122;53.538;49.366;2023-07-13T20:14:48;15.90;73.00
67196;DHT22;54122;53.538;49.366;2023-07-13T20:19:53;15.70;73.50
67196;DHT22;54122;53.538;49.366;2023-07-13T20:22:19;15.60;73.80
67196;DHT22;54122;53.538;49.366;2023-07-13T20:24:45;15.60;74.10
67196;DHT22;54122;53.538;49.366;2023-07-13T20:27:11;15.60;74.30
67196;DHT22;54122;53.538;49.366;2023-07-13T20:29:38;15.50;74.50